sensor_id;sensor_type;location;lat;lon;timestamp;temperature;humidity
8178;DHT22;4130;48.740;9.132;2023-03-13T00:00:57;5.00;99.90
8178;DHT22;4130;48.740;9.132;2023-03-13T00:03:24;5.00;99.90
8178;DHT22;4130;48.740;9.132;2023-03-13T00:05:55;5.10;99.90
8178;DHT22;4130;48.740;9.132;2023-03-13T00:08:23;5.20;99.90
8178;DHT22;4130;48.740;9.132;2023-03-13T00:10:52;5.20;99.90
8178;DHT22;4130;48.740;9.132;2023-03-13T00:13:19;5.30;99.90
8178;DHT22;4130;48.740;9.132;2023-03-13T00:15:45;5.30;99.90
8178;DHT22;4130;48.740;9.132;2023-03-13T00:18:12;5.40;99.90
8178;DHT22;4130;48.740;9.132;2023-03-13T00:20:39;5.40;99.90
8178;DHT22;4130;48.740;9.132;2023-03-13T00:23:06;5.80;99.90
8178;DHT22;4130;48.740;9.132;2023-03-13T00:25:34;5.40;99.90
8178;DHT22;4130;48.740;9.132;2023-03-13T00:28:00;5.30;99.90
8178;DHT22;4130;48.740;9.132;2023-03-13T00:30:27;5.30;99.90
8178;DHT22;4130;48.740;9.132;2023-03-13T00:32:54;5.30;99.90
8178;DHT22;4130;48.740;9.132;2023-03-13T00:35:21;5.30;99.90
8178;DHT22;4130;48.740;9.132;2023-03-13T00:37:48;5.40;99.90
8178;DHT22;4130;48.740;9.132;2023-03-13T00:40:15;5.40;99.90
8178;DHT22;4130;48.740;9.132;2023-03-13T00:42:44;5.40;99.90
8178;DHT22;4130;48.740;9.132;2023-03-13T00:45:11;5.40;99.90
8178;DHT22;4130;48.740;9.132;2023-03-13T00:47:38;5.40;99.90
8178;DHT22;4130;48.740;9.132;2023-03-13T00:50:05;5.40;99.90
8178;DHT22;4130;48.740;9.132;2023-03-13T00:52:32;5.40;99.90
8178;DHT22;4130;48.740;9.132;2023-03-13T00:54:59;5.50;99.90
8178;DHT22;4130;48.740;9.132;2023-03-13T00:57:25;5.50;99.90
8178;DHT22;4130;48.740;9.132;2023-03-13T00:59:53;5.50;99.90
8178;DHT22;4130;48.740;9.132;2023-03-13T01:02:20;5.50;99.90
8178;DHT22;4130;48.740;9.132;2023-03-13T01:04:47;5.60;99.90
8178;DHT22;4130;48.740;9.132;2023-03-13T01:07:14;5.60;99.90
8178;DHT22;4130;48.740;9.132;2023-03-13T01:09:40;5.60;99.90
8178;DHT22;4130;48.740;9.132;2023-03-13T01:12:08;5.60;99.90
8178;DHT22;4130;48.740;9.132;2023-03-13T01:14:34;5.60;99.90
8178;DHT22;4130;48.740;9.132;2023-03-13T01:17:02;5.60;99.90
8178;DHT22;4130;48.740;9.132;2023-03-13T01:19:29;5.60;99.90
8178;DHT22;4130;48.740;9.132;2023-03-13T01:21:56;5.70;99.90
8178;DHT22;4130;48.740;9.132;2023-03-13T01:24:23;5.80;99.90
8178;DHT22;4130;48.740;9.132;2023-03-13T01:26:49;5.80;99.90
8178;DHT22;4130;48.740;9.132;2023-03-13T01:29:16;5.80;99.90
8178;DHT22;4130;48.740;9.132;2023-03-13T01:31:43;5.90;99.90
8178;DHT22;4130;48.740;9.132;2023-03-13T01:34:11;6.00;99.90
8178;DHT22;4130;48.740;9.132;2023-03-13T01:36:38;6.10;99.90
8178;DHT22;4130;48.740;9.132;2023-03-13T01:39:05;6.20;99.90
8178;DHT22;4130;48.740;9.132;2023-03-13T01:41:31;6.20;99.90
8178;DHT22;4130;48.740;9.132;2023-03-13T01:43:58;6.30;99.90
8178;DHT22;4130;48.740;9.132;2023-03-13T01:46:25;6.30;99.90
8178;DHT22;4130;48.740;9.132;2023-03-13T01:48:56;6.40;99.90
8178;DHT22;4130;48.740;9.132;2023-03-13T01:51:27;6.40;99.90
8178;DHT22;4130;48.740;9.132;2023-03-13T01:54:01;6.50;99.90
8178;DHT22;4130;48.740;9.132;2023-03-13T01:56:35;6.50;99.90
8178;DHT22;4130;48.740;9.132;2023-03-13T01:59:04;6.50;99.90
8178;DHT22;4130;48.740;9.132;2023-03-13T02:01:32;6.60;99.90
8178;DHT22;4130;48.740;9.132;2023-03-13T02:03:59;6.60;99.90
8178;DHT22;4130;48.740;9.132;2023-03-13T02:06:30;6.60;99.90
8178;DHT22;4130;48.740;9.132;2023-03-13T02:09:01;6.60;99.90
8178;DHT22;4130;48.740;9.132;2023-03-13T02:11:38;6.60;99.90
8178;DHT22;4130;48.740;9.132;2023-03-13T02:14:08;6.50;99.90
8178;DHT22;4130;48.740;9.132;2023-03-13T02:16:35;6.60;99.90
8178;DHT22;4130;48.740;9.132;2023-03-13T02:19:07;6.50;99.90
8178;DHT22;4130;48.740;9.132;2023-03-13T02:21:49;6.50;99.90
8178;DHT22;4130;48.740;9.132;2023-03-13T02:24:25;6.60;99.90
8178;DHT22;4130;48.740;9.132;2023-03-13T02:26:54;6.60;99.90
8178;DHT22;4130;48.740;9.132;2023-03-13T02:29:22;6.60;99.90
8178;DHT22;4130;48.740;9.132;2023-03-13T02:31:51;6.60;99.90
8178;DHT22;4130;48.740;9.132;2023-03-13T02:34:20;6.60;99.90
8178;DHT22;4130;48.740;9.132;2023-03-13T02:36:48;6.60;99.90
8178;DHT22;4130;48.740;9.132;2023-03-13T02:39:17;6.60;99.90
8178;DHT22;4130;48.740;9.132;2023-03-13T02:41:46;6.80;99.90
8178;DHT22;4130;48.740;9.132;2023-03-13T02:44:14;6.90;99.90
8178;DHT22;4130;48.740;9.132;2023-03-13T02:46:46;7.10;99.90
8178;DHT22;4130;48.740;9.132;2023-03-13T02:49:23;7.30;99.90
8178;DHT22;4130;48.740;9.132;2023-03-13T02:51:51;7.40;99.90
8178;DHT22;4130;48.740;9.132;2023-03-13T02:54:22;7.50;99.90
8178;DHT22;4130;48.740;9.132;2023-03-13T02:56:51;7.60;99.90
8178;DHT22;4130;48.740;9.132;2023-03-13T02:59:21;7.60;99.90
8178;DHT22;4130;48.740;9.132;2023-03-13T03:01:48;7.70;99.90
8178;DHT22;4130;48.740;9.132;2023-03-13T03:04:17;7.80;99.90
8178;DHT22;4130;48.740;9.132;2023-03-13T03:06:44;7.80;99.90
8178;DHT22;4130;48.740;9.132;2023-03-13T03:09:11;7.90;99.90
8178;DHT22;4130;48.740;9.132;2023-03-13T03:11:38;7.90;99.90
8178;DHT22;4130;48.740;9.132;2023-03-13T03:14:05;7.90;99.90
8178;DHT22;4130;48.740;9.132;2023-03-13T03:16:33;8.00;99.90
8178;DHT22;4130;48.740;9.132;2023-03-13T03:18:59;8.00;99.90
8178;DHT22;4130;48.740;9.132;2023-03-13T03:21:26;8.00;99.90
8178;DHT22;4130;48.740;9.132;2023-03-13T03:23:53;7.90;99.90
8178;DHT22;4130;48.740;9.132;2023-03-13T03:26:20;8.00;99.90
8178;DHT22;4130;48.740;9.132;2023-03-13T03:28:47;8.00;99.90
8178;DHT22;4130;48.740;9.132;2023-03-13T03:31:15;7.80;99.90
8178;DHT22;4130;48.740;9.132;2023-03-13T03:33:43;7.80;99.90
8178;DHT22;4130;48.740;9.132;2023-03-13T03:36:11;7.70;99.90
8178;DHT22;4130;48.740;9.132;2023-03-13T03:38:39;7.80;99.90
8178;DHT22;4130;48.740;9.132;2023-03-13T03:41:06;7.80;99.90
8178;DHT22;4130;48.740;9.132;2023-03-13T03:43:33;7.80;99.90
8178;DHT22;4130;48.740;9.132;2023-03-13T03:46:00;7.80;99.90
8178;DHT22;4130;48.740;9.132;2023-03-13T03:48:27;7.80;99.90
8178;DHT22;4130;48.740;9.132;2023-03-13T03:50:55;7.90;99.90
8178;DHT22;4130;48.740;9.132;2023-03-13T03:53:22;8.00;99.90
8178;DHT22;4130;48.740;9.132;2023-03-13T03:55:50;8.20;99.90
8178;DHT22;4130;48.740;9.132;2023-03-13T03:58:17;8.30;99.90
8178;DHT22;4130;48.740;9.132;2023-03-13T04:00:44;8.40;99.90
8178;DHT22;4130;48.740;9.132;2023-03-13T04:03:11;8.60;99.90
8178;DHT22;4130;48.740;9.132;2023-03-13T04:05:39;8.80;99.90
8178;DHT22;4130;48.740;9.132;2023-03-13T04:08:08;9.00;99.90
8178;DHT22;4130;48.740;9.132;2023-03-13T04:10:35;9.20;99.90
8178;DHT22;4130;48.740;9.132;2023-03-13T04:13:01;9.40;99.90
8178;DHT22;4130;48.740;9.132;2023-03-13T04:15:28;9.70;99.90
8178;DHT22;4130;48.740;9.132;2023-03-13T04:17:57;9.90;99.90
8178;DHT22;4130;48.740;9.132;2023-03-13T04:20:24;10.10;99.90
8178;DHT22;4130;48.740;9.132;2023-03-13T04:22:51;10.30;99.90
8178;DHT22;4130;48.740;9.132;2023-03-13T04:25:19;10.40;99.90
8178;DHT22;4130;48.740;9.132;2023-03-13T04:27:45;10.60;99.90
8178;DHT22;4130;48.740;9.132;2023-03-13T04:30:12;10.60;99.90
8178;DHT22;4130;48.740;9.132;2023-03-13T04:32:39;10.60;99.90
8178;DHT22;4130;48.740;9.132;2023-03-13T04:35:06;10.60;99.90
8178;DHT22;4130;48.740;9.132;2023-03-13T04:37:33;10.70;99.90
8178;DHT22;4130;48.740;9.132;2023-03-13T04:40:00;10.70;99.90
8178;DHT22;4130;48.740;9.132;2023-03-13T04:42:28;10.70;99.90
8178;DHT22;4130;48.740;9.132;2023-03-13T04:44:55;10.80;99.90
8178;DHT22;4130;48.740;9.132;2023-03-13T04:47:22;10.80;99.90
8178;DHT22;4130;48.740;9.132;2023-03-13T04:49:48;10.70;99.90
8178;DHT22;4130;48.740;9.132;2023-03-13T04:52:15;10.70;99.90
8178;DHT22;4130;48.740;9.132;2023-03-13T04:54:42;10.70;99.90
8178;DHT22;4130;48.740;9.132;2023-03-13T04:57:08;10.70;99.90
8178;DHT22;4130;48.740;9.132;2023-03-13T04:59:36;10.70;99.90
8178;DHT22;4130;48.740;9.132;2023-03-13T05:02:03;10.60;99.90
8178;DHT22;4130;48.740;9.132;2023-03-13T05:04:30;10.70;99.90
8178;DHT22;4130;48.740;9.132;2023-03-13T05:06:58;10.60;99.90
8178;DHT22;4130;48.740;9.132;2023-03-13T05:09:25;10.70;99.90
8178;DHT22;4130;48.740;9.132;2023-03-13T05:11:51;10.70;99.90
8178;DHT22;4130;48.740;9.132;2023-03-13T05:14:18;10.70;99.90
8178;DHT22;4130;48.740;9.132;2023-03-13T05:16:46;10.70;99.90
8178;DHT22;4130;48.740;9.132;2023-03-13T05:19:13;10.70;99.90
8178;DHT22;4130;48.740;9.132;2023-03-13T05:21:40;10.70;99.90
8178;DHT22;4130;48.740;9.132;2023-03-13T05:24:07;10.70;99.90
8178;DHT22;4130;48.740;9.132;2023-03-13T05:26:33;10.70;99.90
8178;DHT22;4130;48.740;9.132;2023-03-13T05:29:00;10.70;99.90
8178;DHT22;4130;48.740;9.132;2023-03-13T05:31:27;10.70;99.90
8178;DHT22;4130;48.740;9.132;2023-03-13T05:33:57;10.80;99.90
8178;DHT22;4130;48.740;9.132;2023-03-13T05:36:24;10.80;99.90
8178;DHT22;4130;48.740;9.132;2023-03-13T05:38:50;10.80;99.90
8178;DHT22;4130;48.740;9.132;2023-03-13T05:41:19;10.80;99.90
8178;DHT22;4130;48.740;9.132;2023-03-13T05:43:46;10.80;99.90
8178;DHT22;4130;48.740;9.132;2023-03-13T05:46:13;10.90;99.90
8178;DHT22;4130;48.740;9.132;2023-03-13T05:48:39;10.90;99.90
8178;DHT22;4130;48.740;9.132;2023-03-13T05:51:08;10.90;99.90
8178;DHT22;4130;48.740;9.132;2023-03-13T05:53:34;10.90;99.90
8178;DHT22;4130;48.740;9.132;2023-03-13T05:56:01;10.90;99.90
8178;DHT22;4130;48.740;9.132;2023-03-13T05:58:28;10.90;99.90
8178;DHT22;4130;48.740;9.132;2023-03-13T06:00:54;10.90;99.90
8178;DHT22;4130;48.740;9.132;2023-03-13T06:03:22;10.80;99.90
8178;DHT22;4130;48.740;9.132;2023-03-13T06:05:49;10.90;99.90
8178;DHT22;4130;48.740;9.132;2023-03-13T06:08:23;10.90;99.90
8178;DHT22;4130;48.740;9.132;2023-03-13T06:10:50;10.90;99.90
8178;DHT22;4130;48.740;9.132;2023-03-13T06:13:17;10.90;99.90
8178;DHT22;4130;48.740;9.132;2023-03-13T06:15:50;11.00;99.90
8178;DHT22;4130;48.740;9.132;2023-03-13T06:18:16;11.10;99.90
8178;DHT22;4130;48.740;9.132;2023-03-13T06:20:43;11.10;99.90
8178;DHT22;4130;48.740;9.132;2023-03-13T06:23:10;11.20;99.90
8178;DHT22;4130;48.740;9.132;2023-03-13T06:25:40;11.30;99.90
8178;DHT22;4130;48.740;9.132;2023-03-13T06:28:07;11.30;99.90
8178;DHT22;4130;48.740;9.132;2023-03-13T06:30:33;11.30;99.90
8178;DHT22;4130;48.740;9.132;2023-03-13T06:33:00;11.40;99.90
8178;DHT22;4130;48.740;9.132;2023-03-13T06:35:27;11.40;99.90
8178;DHT22;4130;48.740;9.132;2023-03-13T06:37:53;11.50;99.90
8178;DHT22;4130;48.740;9.132;2023-03-13T06:40:20;11.60;99.90
8178;DHT22;4130;48.740;9.132;2023-03-13T06:42:48;11.70;99.90
8178;DHT22;4130;48.740;9.132;2023-03-13T06:45:15;11.70;99.90
8178;DHT22;4130;48.740;9.132;2023-03-13T06:47:42;11.70;99.90
8178;DHT22;4130;48.740;9.132;2023-03-13T06:50:10;11.90;99.90
8178;DHT22;4130;48.740;9.132;2023-03-13T06:52:36;11.80;99.90
8178;DHT22;4130;48.740;9.132;2023-03-13T06:55:04;11.80;99.90
8178;DHT22;4130;48.740;9.132;2023-03-13T06:57:31;11.80;99.90
8178;DHT22;4130;48.740;9.132;2023-03-13T06:59:59;11.80;99.90
8178;DHT22;4130;48.740;9.132;2023-03-13T07:02:25;11.90;99.90
8178;DHT22;4130;48.740;9.132;2023-03-13T07:04:52;11.80;99.90
8178;DHT22;4130;48.740;9.132;2023-03-13T07:07:19;11.80;99.90
8178;DHT22;4130;48.740;9.132;2023-03-13T07:09:45;11.80;99.90
8178;DHT22;4130;48.740;9.132;2023-03-13T07:12:12;11.80;99.90
8178;DHT22;4130;48.740;9.132;2023-03-13T07:14:39;11.80;99.90
8178;DHT22;4130;48.740;9.132;2023-03-13T07:17:07;11.70;99.90
8178;DHT22;4130;48.740;9.132;2023-03-13T07:19:34;11.80;99.90
8178;DHT22;4130;48.740;9.132;2023-03-13T07:22:00;11.80;99.90
8178;DHT22;4130;48.740;9.132;2023-03-13T07:24:27;11.80;99.90
8178;DHT22;4130;48.740;9.132;2023-03-13T07:26:55;11.80;99.90
8178;DHT22;4130;48.740;9.132;2023-03-13T07:29:22;11.80;99.90
8178;DHT22;4130;48.740;9.132;2023-03-13T07:31:49;11.90;99.90
8178;DHT22;4130;48.740;9.132;2023-03-13T07:34:17;11.90;99.90
8178;DHT22;4130;48.740;9.132;2023-03-13T07:36:44;11.90;99.90
8178;DHT22;4130;48.740;9.132;2023-03-13T07:39:11;11.90;99.90
8178;DHT22;4130;48.740;9.132;2023-03-13T07:41:38;11.90;99.90
8178;DHT22;4130;48.740;9.132;2023-03-13T07:44:04;11.90;99.90
8178;DHT22;4130;48.740;9.132;2023-03-13T07:46:31;12.00;99.90
8178;DHT22;4130;48.740;9.132;2023-03-13T07:48:58;11.90;99.90
8178;DHT22;4130;48.740;9.132;2023-03-13T07:51:26;12.10;99.90
8178;DHT22;4130;48.740;9.132;2023-03-13T07:53:53;12.00;99.90
8178;DHT22;4130;48.740;9.132;2023-03-13T07:56:21;12.10;99.90
8178;DHT22;4130;48.740;9.132;2023-03-13T07:58:50;12.10;99.90
8178;DHT22;4130;48.740;9.132;2023-03-13T08:01:18;12.10;99.90
8178;DHT22;4130;48.740;9.132;2023-03-13T08:03:45;12.10;99.90
8178;DHT22;4130;48.740;9.132;2023-03-13T08:06:15;12.30;99.90
8178;DHT22;4130;48.740;9.132;2023-03-13T08:08:44;12.40;99.90
8178;DHT22;4130;48.740;9.132;2023-03-13T08:11:13;12.50;99.90
8178;DHT22;4130;48.740;9.132;2023-03-13T08:13:40;12.60;99.90
8178;DHT22;4130;48.740;9.132;2023-03-13T08:16:09;12.80;99.90
8178;DHT22;4130;48.740;9.132;2023-03-13T08:18:37;12.90;99.90
8178;DHT22;4130;48.740;9.132;2023-03-13T08:21:06;12.90;99.90
8178;DHT22;4130;48.740;9.132;2023-03-13T08:23:33;13.00;99.90
8178;DHT22;4130;48.740;9.132;2023-03-13T08:26:03;13.10;99.90
8178;DHT22;4130;48.740;9.132;2023-03-13T08:28:31;13.20;99.90
8178;DHT22;4130;48.740;9.132;2023-03-13T08:30:58;13.30;99.90
8178;DHT22;4130;48.740;9.132;2023-03-13T08:33:24;13.30;99.90
8178;DHT22;4130;48.740;9.132;2023-03-13T08:35:51;13.40;99.90
8178;DHT22;4130;48.740;9.132;2023-03-13T08:38:19;13.50;99.90
8178;DHT22;4130;48.740;9.132;2023-03-13T08:40:46;13.50;99.90
8178;DHT22;4130;48.740;9.132;2023-03-13T08:43:14;13.50;99.90
8178;DHT22;4130;48.740;9.132;2023-03-13T08:45:40;13.50;99.90
8178;DHT22;4130;48.740;9.132;2023-03-13T08:48:07;13.60;99.90
8178;DHT22;4130;48.740;9.132;2023-03-13T08:50:34;13.60;99.90
8178;DHT22;4130;48.740;9.132;2023-03-13T08:53:01;13.60;99.90
8178;DHT22;4130;48.740;9.132;2023-03-13T08:55:28;13.60;99.90
8178;DHT22;4130;48.740;9.132;2023-03-13T08:57:54;13.70;99.90
8178;DHT22;4130;48.740;9.132;2023-03-13T09:00:23;13.70;99.90
8178;DHT22;4130;48.740;9.132;2023-03-13T09:02:50;13.90;99.90
8178;DHT22;4130;48.740;9.132;2023-03-13T09:05:16;13.90;99.90
8178;DHT22;4130;48.740;9.132;2023-03-13T09:07:43;13.90;99.90
8178;DHT22;4130;48.740;9.132;2023-03-13T09:10:11;13.90;99.90
8178;DHT22;4130;48.740;9.132;2023-03-13T09:12:44;13.90;99.90
8178;DHT22;4130;48.740;9.132;2023-03-13T09:15:12;13.90;99.90
8178;DHT22;4130;48.740;9.132;2023-03-13T09:17:40;14.00;99.90
8178;DHT22;4130;48.740;9.132;2023-03-13T09:20:09;14.10;99.90
8178;DHT22;4130;48.740;9.132;2023-03-13T09:22:36;14.10;99.90
8178;DHT22;4130;48.740;9.132;2023-03-13T09:25:02;14.10;99.90
8178;DHT22;4130;48.740;9.132;2023-03-13T09:27:29;14.20;99.90
8178;DHT22;4130;48.740;9.132;2023-03-13T09:29:56;14.10;99.90
8178;DHT22;4130;48.740;9.132;2023-03-13T09:32:23;14.20;99.90
8178;DHT22;4130;48.740;9.132;2023-03-13T09:34:51;14.30;99.90
8178;DHT22;4130;48.740;9.132;2023-03-13T09:37:18;14.40;99.90
8178;DHT22;4130;48.740;9.132;2023-03-13T09:39:45;14.50;99.90
8178;DHT22;4130;48.740;9.132;2023-03-13T09:42:15;14.50;99.90
8178;DHT22;4130;48.740;9.132;2023-03-13T09:44:45;14.40;99.90
8178;DHT22;4130;48.740;9.132;2023-03-13T09:47:19;14.40;99.90
8178;DHT22;4130;48.740;9.132;2023-03-13T09:49:48;14.50;99.90
8178;DHT22;4130;48.740;9.132;2023-03-13T09:52:22;14.80;99.90
8178;DHT22;4130;48.740;9.132;2023-03-13T09:54:51;15.00;99.90
8178;DHT22;4130;48.740;9.132;2023-03-13T09:57:24;15.30;99.90
8178;DHT22;4130;48.740;9.132;2023-03-13T09:59:56;15.70;99.90
8178;DHT22;4130;48.740;9.132;2023-03-13T10:02:28;15.60;99.90
8178;DHT22;4130;48.740;9.132;2023-03-13T10:05:01;15.70;99.90
8178;DHT22;4130;48.740;9.132;2023-03-13T10:07:30;15.80;99.90
8178;DHT22;4130;48.740;9.132;2023-03-13T10:09:59;15.80;99.90
8178;DHT22;4130;48.740;9.132;2023-03-13T10:12:28;15.90;99.90
8178;DHT22;4130;48.740;9.132;2023-03-13T10:15:06;16.20;99.90
8178;DHT22;4130;48.740;9.132;2023-03-13T10:17:43;16.50;99.90
8178;DHT22;4130;48.740;9.132;2023-03-13T10:20:19;16.50;99.90
8178;DHT22;4130;48.740;9.132;2023-03-13T10:22:50;16.40;99.90
8178;DHT22;4130;48.740;9.132;2023-03-13T10:25:26;16.40;99.90
8178;DHT22;4130;48.740;9.132;2023-03-13T10:27:53;16.30;99.90
8178;DHT22;4130;48.740;9.132;2023-03-13T10:30:23;16.30;99.90
8178;DHT22;4130;48.740;9.132;2023-03-13T10:32:52;16.50;99.90
8178;DHT22;4130;48.740;9.132;2023-03-13T10:35:21;16.70;99.90
8178;DHT22;4130;48.740;9.132;2023-03-13T10:37:49;16.90;99.90
8178;DHT22;4130;48.740;9.132;2023-03-13T10:40:20;17.00;99.90
8178;DHT22;4130;48.740;9.132;2023-03-13T10:42:49;17.20;99.90
8178;DHT22;4130;48.740;9.132;2023-03-13T10:45:18;17.30;99.90
8178;DHT22;4130;48.740;9.132;2023-03-13T10:47:53;17.30;99.90
8178;DHT22;4130;48.740;9.132;2023-03-13T10:50:22;17.30;99.90
8178;DHT22;4130;48.740;9.132;2023-03-13T10:52:51;17.10;99.90
8178;DHT22;4130;48.740;9.132;2023-03-13T10:55:20;16.90;99.90
8178;DHT22;4130;48.740;9.132;2023-03-13T10:57:56;16.80;99.90
8178;DHT22;4130;48.740;9.132;2023-03-13T11:00:33;16.70;99.90
8178;DHT22;4130;48.740;9.132;2023-03-13T11:03:01;16.80;99.90
8178;DHT22;4130;48.740;9.132;2023-03-13T11:05:39;16.80;99.90
8178;DHT22;4130;48.740;9.132;2023-03-13T11:08:27;16.70;99.90
8178;DHT22;4130;48.740;9.132;2023-03-13T11:11:00;16.70;99.90
8178;DHT22;4130;48.740;9.132;2023-03-13T11:13:30;17.00;99.90
8178;DHT22;4130;48.740;9.132;2023-03-13T11:16:05;17.10;99.90
8178;DHT22;4130;48.740;9.132;2023-03-13T11:18:40;17.20;99.90
8178;DHT22;4130;48.740;9.132;2023-03-13T11:21:15;17.40;99.90
8178;DHT22;4130;48.740;9.132;2023-03-13T11:23:50;17.50;99.90
8178;DHT22;4130;48.740;9.132;2023-03-13T11:26:25;17.50;99.90
8178;DHT22;4130;48.740;9.132;2023-03-13T11:28:57;17.50;99.90
8178;DHT22;4130;48.740;9.132;2023-03-13T11:31:29;17.60;99.90
8178;DHT22;4130;48.740;9.132;2023-03-13T11:34:04;17.80;99.90
8178;DHT22;4130;48.740;9.132;2023-03-13T11:36:33;17.60;99.90
8178;DHT22;4130;48.740;9.132;2023-03-13T11:39:18;17.60;99.90
8178;DHT22;4130;48.740;9.132;2023-03-13T11:41:58;17.60;99.90
8178;DHT22;4130;48.740;9.132;2023-03-13T11:44:30;17.70;99.90
8178;DHT22;4130;48.740;9.132;2023-03-13T11:47:14;17.70;99.90
8178;DHT22;4130;48.740;9.132;2023-03-13T11:50:07;17.60;99.90
8178;DHT22;4130;48.740;9.132;2023-03-13T11:52:42;17.60;99.90
8178;DHT22;4130;48.740;9.132;2023-03-13T11:55:28;17.50;99.90
8178;DHT22;4130;48.740;9.132;2023-03-13T11:58:15;17.60;99.90
8178;DHT22;4130;48.740;9.132;2023-03-13T12:00:56;17.80;99.90
8178;DHT22;4130;48.740;9.132;2023-03-13T12:03:33;18.10;99.90
8178;DHT22;4130;48.740;9.132;2023-03-13T12:06:02;18.30;99.90
8178;DHT22;4130;48.740;9.132;2023-03-13T12:08:35;18.50;99.90
8178;DHT22;4130;48.740;9.132;2023-03-13T12:11:12;18.60;99.90
8178;DHT22;4130;48.740;9.132;2023-03-13T12:13:44;18.80;99.90
8178;DHT22;4130;48.740;9.132;2023-03-13T12:16:16;18.90;99.90
8178;DHT22;4130;48.740;9.132;2023-03-13T12:18:45;18.80;99.90
8178;DHT22;4130;48.740;9.132;2023-03-13T12:21:18;18.90;99.90
8178;DHT22;4130;48.740;9.132;2023-03-13T12:23:56;19.10;99.90
8178;DHT22;4130;48.740;9.132;2023-03-13T12:26:33;19.20;99.90
8178;DHT22;4130;48.740;9.132;2023-03-13T12:29:10;19.10;99.90
8178;DHT22;4130;48.740;9.132;2023-03-13T12:31:41;19.20;99.90
8178;DHT22;4130;48.740;9.132;2023-03-13T12:34:13;19.00;99.90
8178;DHT22;4130;48.740;9.132;2023-03-13T12:36:45;18.90;99.90
8178;DHT22;4130;48.740;9.132;2023-03-13T12:39:21;18.90;99.90
8178;DHT22;4130;48.740;9.132;2023-03-13T12:42:02;19.10;99.90
8178;DHT22;4130;48.740;9.132;2023-03-13T12:44:33;19.10;99.90
8178;DHT22;4130;48.740;9.132;2023-03-13T12:47:06;19.20;99.90
8178;DHT22;4130;48.740;9.132;2023-03-13T12:49:57;19.30;99.90
8178;DHT22;4130;48.740;9.132;2023-03-13T12:55:41;19.70;99.90
8178;DHT22;4130;48.740;9.132;2023-03-13T12:58:38;19.90;99.90
8178;DHT22;4130;48.740;9.132;2023-03-13T13:01:06;20.00;99.90
8178;DHT22;4130;48.740;9.132;2023-03-13T13:03:42;20.10;99.90
8178;DHT22;4130;48.740;9.132;2023-03-13T13:06:13;20.10;99.90
8178;DHT22;4130;48.740;9.132;2023-03-13T13:08:42;20.10;99.90
8178;DHT22;4130;48.740;9.132;2023-03-13T13:17:34;20.20;99.90
8178;DHT22;4130;48.740;9.132;2023-03-13T13:20:29;20.20;99.90
8178;DHT22;4130;48.740;9.132;2023-03-13T13:22:56;20.20;99.60
8178;DHT22;4130;48.740;9.132;2023-03-13T13:25:41;20.20;99.40
8178;DHT22;4130;48.740;9.132;2023-03-13T13:28:24;20.10;99.80
8178;DHT22;4130;48.740;9.132;2023-03-13T13:30:54;20.10;99.30
8178;DHT22;4130;48.740;9.132;2023-03-13T13:33:37;20.20;99.40
8178;DHT22;4130;48.740;9.132;2023-03-13T13:36:27;20.20;99.10
8178;DHT22;4130;48.740;9.132;2023-03-13T13:38:55;20.20;98.90
8178;DHT22;4130;48.740;9.132;2023-03-13T13:41:25;20.10;99.30
8178;DHT22;4130;48.740;9.132;2023-03-13T13:44:21;20.00;98.70
8178;DHT22;4130;48.740;9.132;2023-03-13T13:46:48;19.90;98.90
8178;DHT22;4130;48.740;9.132;2023-03-13T13:49:18;19.80;99.00
8178;DHT22;4130;48.740;9.132;2023-03-13T13:55:01;19.70;98.90
8178;DHT22;4130;48.740;9.132;2023-03-13T13:57:30;19.80;99.10
8178;DHT22;4130;48.740;9.132;2023-03-13T14:00:03;19.80;98.80
8178;DHT22;4130;48.740;9.132;2023-03-13T14:02:33;19.90;99.20
8178;DHT22;4130;48.740;9.132;2023-03-13T14:05:04;20.10;98.80
8178;DHT22;4130;48.740;9.132;2023-03-13T14:07:58;20.20;98.50
8178;DHT22;4130;48.740;9.132;2023-03-13T14:10:31;20.30;99.20
8178;DHT22;4130;48.740;9.132;2023-03-13T14:13:00;20.30;98.10
8178;DHT22;4130;48.740;9.132;2023-03-13T14:15:28;20.40;98.40
8178;DHT22;4130;48.740;9.132;2023-03-13T14:17:57;20.40;98.10
8178;DHT22;4130;48.740;9.132;2023-03-13T14:20:30;20.40;98.00
8178;DHT22;4130;48.740;9.132;2023-03-13T14:22:59;20.40;97.90
8178;DHT22;4130;48.740;9.132;2023-03-13T14:25:28;20.40;97.50
8178;DHT22;4130;48.740;9.132;2023-03-13T14:28:15;20.50;97.50
8178;DHT22;4130;48.740;9.132;2023-03-13T14:30:42;20.70;97.60
8178;DHT22;4130;48.740;9.132;2023-03-13T14:33:09;20.80;96.60
8178;DHT22;4130;48.740;9.132;2023-03-13T14:35:38;20.90;97.10
8178;DHT22;4130;48.740;9.132;2023-03-13T14:38:05;20.80;96.90
8178;DHT22;4130;48.740;9.132;2023-03-13T14:40:36;20.70;96.70
8178;DHT22;4130;48.740;9.132;2023-03-13T14:43:03;20.60;96.70
8178;DHT22;4130;48.740;9.132;2023-03-13T14:45:31;20.50;96.50
8178;DHT22;4130;48.740;9.132;2023-03-13T14:48:03;20.50;96.70
8178;DHT22;4130;48.740;9.132;2023-03-13T14:50:30;20.60;96.70
8178;DHT22;4130;48.740;9.132;2023-03-13T14:53:01;20.50;96.50
8178;DHT22;4130;48.740;9.132;2023-03-13T14:55:34;20.50;96.60
8178;DHT22;4130;48.740;9.132;2023-03-13T14:58:22;20.50;96.30
8178;DHT22;4130;48.740;9.132;2023-03-13T15:00:52;20.40;96.40
8178;DHT22;4130;48.740;9.132;2023-03-13T15:03:28;20.30;96.90
8178;DHT22;4130;48.740;9.132;2023-03-13T15:06:12;20.30;96.70
8178;DHT22;4130;48.740;9.132;2023-03-13T15:08:42;20.40;96.80
8178;DHT22;4130;48.740;9.132;2023-03-13T15:11:24;20.50;96.70
8178;DHT22;4130;48.740;9.132;2023-03-13T15:13:52;20.50;96.60
8178;DHT22;4130;48.740;9.132;2023-03-13T15:16:21;20.60;96.70
8178;DHT22;4130;48.740;9.132;2023-03-13T15:18:49;20.60;96.70
8178;DHT22;4130;48.740;9.132;2023-03-13T15:21:29;20.50;97.20
8178;DHT22;4130;48.740;9.132;2023-03-13T15:24:01;20.40;96.90
8178;DHT22;4130;48.740;9.132;2023-03-13T15:26:28;20.30;96.90
8178;DHT22;4130;48.740;9.132;2023-03-13T15:28:55;20.30;96.90
8178;DHT22;4130;48.740;9.132;2023-03-13T15:31:25;20.30;96.90
8178;DHT22;4130;48.740;9.132;2023-03-13T15:33:55;20.30;96.90
8178;DHT22;4130;48.740;9.132;2023-03-13T15:36:23;20.40;97.00
8178;DHT22;4130;48.740;9.132;2023-03-13T15:38:50;20.50;96.80
8178;DHT22;4130;48.740;9.132;2023-03-13T15:41:19;20.50;96.70
8178;DHT22;4130;48.740;9.132;2023-03-13T15:43:47;20.40;96.90
8178;DHT22;4130;48.740;9.132;2023-03-13T15:46:17;20.30;96.80
8178;DHT22;4130;48.740;9.132;2023-03-13T15:48:44;20.40;96.80
8178;DHT22;4130;48.740;9.132;2023-03-13T15:51:13;20.40;96.90
8178;DHT22;4130;48.740;9.132;2023-03-13T15:53:47;20.50;96.90
8178;DHT22;4130;48.740;9.132;2023-03-13T15:56:15;20.40;96.90
8178;DHT22;4130;48.740;9.132;2023-03-13T15:58:45;20.40;97.00
8178;DHT22;4130;48.740;9.132;2023-03-13T16:01:14;20.40;97.00
8178;DHT22;4130;48.740;9.132;2023-03-13T16:03:41;20.40;96.80
8178;DHT22;4130;48.740;9.132;2023-03-13T16:06:13;20.30;96.80
8178;DHT22;4130;48.740;9.132;2023-03-13T16:08:41;20.20;96.70
8178;DHT22;4130;48.740;9.132;2023-03-13T16:11:10;20.10;96.90
8178;DHT22;4130;48.740;9.132;2023-03-13T16:13:37;20.10;97.20
8178;DHT22;4130;48.740;9.132;2023-03-13T16:16:17;20.10;97.50
8178;DHT22;4130;48.740;9.132;2023-03-13T16:18:45;20.30;97.60
8178;DHT22;4130;48.740;9.132;2023-03-13T16:21:17;20.40;97.70
8178;DHT22;4130;48.740;9.132;2023-03-13T16:23:44;20.40;97.60
8178;DHT22;4130;48.740;9.132;2023-03-13T16:26:14;20.30;97.40
8178;DHT22;4130;48.740;9.132;2023-03-13T16:28:41;20.00;97.60
8178;DHT22;4130;48.740;9.132;2023-03-13T16:31:15;19.70;98.00
8178;DHT22;4130;48.740;9.132;2023-03-13T16:33:42;19.40;98.20
8178;DHT22;4130;48.740;9.132;2023-03-13T16:36:13;19.00;98.40